sensor_id;sensor_type;location;lat;lon;timestamp;temperature;humidity
7516;DHT22;3799;47.184;8.538;2022-09-29T00:02:18;8.90;99.90
7516;DHT22;3799;47.184;8.538;2022-09-29T00:04:44;8.90;99.90
7516;DHT22;3799;47.184;8.538;2022-09-29T00:07:09;8.90;99.90
7516;DHT22;3799;47.184;8.538;2022-09-29T00:09:35;8.90;99.90
7516;DHT22;3799;47.184;8.538;2022-09-29T00:12:01;8.70;99.90
7516;DHT22;3799;47.184;8.538;2022-09-29T00:14:26;9.10;99.90
7516;DHT22;3799;47.184;8.538;2022-09-29T00:16:55;9.00;99.90
7516;DHT22;3799;47.184;8.538;2022-09-29T00:19:21;9.10;99.90
7516;DHT22;3799;47.184;8.538;2022-09-29T00:21:47;8.90;99.90
7516;DHT22;3799;47.184;8.538;2022-09-29T00:24:12;8.90;99.90
7516;DHT22;3799;47.184;8.538;2022-09-29T00:26:38;8.90;99.90
7516;DHT22;3799;47.184;8.538;2022-09-29T00:29:04;8.80;99.90
7516;DHT22;3799;47.184;8.538;2022-09-29T00:31:30;8.70;99.90
7516;DHT22;3799;47.184;8.538;2022-09-29T00:33:56;8.90;99.90
7516;DHT22;3799;47.184;8.538;2022-09-29T00:36:23;8.80;99.90
7516;DHT22;3799;47.184;8.538;2022-09-29T00:38:49;8.90;99.90
7516;DHT22;3799;47.184;8.538;2022-09-29T00:41:23;8.90;99.90
7516;DHT22;3799;47.184;8.538;2022-09-29T00:43:56;9.20;99.90
7516;DHT22;3799;47.184;8.538;2022-09-29T00:48:52;9.20;99.90
7516;DHT22;3799;47.184;8.538;2022-09-29T00:51:18;9.10;99.90
7516;DHT22;3799;47.184;8.538;2022-09-29T00:53:44;9.10;99.90
7516;DHT22;3799;47.184;8.538;2022-09-29T00:56:11;9.10;99.90
7516;DHT22;3799;47.184;8.538;2022-09-29T00:58:39;9.00;99.90
7516;DHT22;3799;47.184;8.538;2022-09-29T01:01:07;9.10;99.90
7516;DHT22;3799;47.184;8.538;2022-09-29T01:03:34;9.00;99.90
7516;DHT22;3799;47.184;8.538;2022-09-29T01:06:05;9.30;99.90
7516;DHT22;3799;47.184;8.538;2022-09-29T01:08:51;9.20;99.90
7516;DHT22;3799;47.184;8.538;2022-09-29T01:11:19;9.00;99.90
7516;DHT22;3799;47.184;8.538;2022-09-29T01:13:46;9.30;99.90
7516;DHT22;3799;47.184;8.538;2022-09-29T01:16:12;9.10;99.90
7516;DHT22;3799;47.184;8.538;2022-09-29T01:18:37;9.30;99.90
7516;DHT22;3799;47.184;8.538;2022-09-29T01:21:10;9.30;99.90
7516;DHT22;3799;47.184;8.538;2022-09-29T01:31:49;9.10;99.90
7516;DHT22;3799;47.184;8.538;2022-09-29T01:39:11;9.40;99.90
7516;DHT22;3799;47.184;8.538;2022-09-29T01:44:14;9.30;99.90
7516;DHT22;3799;47.184;8.538;2022-09-29T01:46:51;9.20;99.90
7516;DHT22;3799;47.184;8.538;2022-09-29T01:49:18;9.60;99.90
7516;DHT22;3799;47.184;8.538;2022-09-29T01:54:16;9.30;99.90
7516;DHT22;3799;47.184;8.538;2022-09-29T01:56:45;9.50;99.90
7516;DHT22;3799;47.184;8.538;2022-09-29T01:59:32;9.20;99.90
7516;DHT22;3799;47.184;8.538;2022-09-29T02:01:59;9.10;99.90
7516;DHT22;3799;47.184;8.538;2022-09-29T02:04:31;9.10;99.90
7516;DHT22;3799;47.184;8.538;2022-09-29T02:07:01;9.10;99.90
7516;DHT22;3799;47.184;8.538;2022-09-29T02:09:29;9.20;99.90
7516;DHT22;3799;47.184;8.538;2022-09-29T02:11:57;9.30;99.90
7516;DHT22;3799;47.184;8.538;2022-09-29T02:14:26;9.20;99.90
7516;DHT22;3799;47.184;8.538;2022-09-29T02:16:56;9.30;99.90
7516;DHT22;3799;47.184;8.538;2022-09-29T02:19:24;9.10;99.90
7516;DHT22;3799;47.184;8.538;2022-09-29T02:21:51;9.30;99.90
7516;DHT22;3799;47.184;8.538;2022-09-29T02:24:19;9.10;99.90
7516;DHT22;3799;47.184;8.538;2022-09-29T02:26:45;9.20;99.90
7516;DHT22;3799;47.184;8.538;2022-09-29T02:29:11;9.30;99.90
7516;DHT22;3799;47.184;8.538;2022-09-29T02:31:38;9.10;99.90
7516;DHT22;3799;47.184;8.538;2022-09-29T02:34:04;9.10;99.90
7516;DHT22;3799;47.184;8.538;2022-09-29T02:46:20;9.30;99.90
7516;DHT22;3799;47.184;8.538;2022-09-29T02:51:28;9.20;99.90
7516;DHT22;3799;47.184;8.538;2022-09-29T02:59:12;9.20;99.90
7516;DHT22;3799;47.184;8.538;2022-09-29T03:01:46;9.20;99.90
7516;DHT22;3799;47.184;8.538;2022-09-29T03:04:12;9.30;99.90
7516;DHT22;3799;47.184;8.538;2022-09-29T03:06:37;9.30;99.90
7516;DHT22;3799;47.184;8.538;2022-09-29T03:09:03;9.20;99.90
7516;DHT22;3799;47.184;8.538;2022-09-29T03:11:28;9.50;99.90
7516;DHT22;3799;47.184;8.538;2022-09-29T03:14:10;9.20;99.90
7516;DHT22;3799;47.184;8.538;2022-09-29T03:16:36;9.50;99.90
7516;DHT22;3799;47.184;8.538;2022-09-29T03:19:02;9.20;99.90
7516;DHT22;3799;47.184;8.538;2022-09-29T03:21:29;9.10;99.90
7516;DHT22;3799;47.184;8.538;2022-09-29T03:23:55;9.10;99.90
7516;DHT22;3799;47.184;8.538;2022-09-29T03:26:21;9.30;99.90
7516;DHT22;3799;47.184;8.538;2022-09-29T03:28:49;9.50;99.90
7516;DHT22;3799;47.184;8.538;2022-09-29T03:31:14;9.50;99.90
7516;DHT22;3799;47.184;8.538;2022-09-29T03:33:40;9.40;99.90
7516;DHT22;3799;47.184;8.538;2022-09-29T03:36:06;9.40;99.90
7516;DHT22;3799;47.184;8.538;2022-09-29T03:38:33;9.20;99.90
7516;DHT22;3799;47.184;8.538;2022-09-29T03:40:59;9.40;99.90
7516;DHT22;3799;47.184;8.538;2022-09-29T03:43:24;9.60;99.90
7516;DHT22;3799;47.184;8.538;2022-09-29T03:45:51;9.20;99.90
7516;DHT22;3799;47.184;8.538;2022-09-29T03:48:17;9.50;99.90
7516;DHT22;3799;47.184;8.538;2022-09-29T03:50:46;9.20;99.90
7516;DHT22;3799;47.184;8.538;2022-09-29T03:53:13;9.60;99.90
7516;DHT22;3799;47.184;8.538;2022-09-29T03:55:39;9.50;99.90
7516;DHT22;3799;47.184;8.538;2022-09-29T03:58:05;9.30;99.90
7516;DHT22;3799;47.184;8.538;2022-09-29T04:00:30;9.50;99.90
7516;DHT22;3799;47.184;8.538;2022-09-29T04:02:56;9.10;99.90
7516;DHT22;3799;47.184;8.538;2022-09-29T04:05:22;9.30;99.90
7516;DHT22;3799;47.184;8.538;2022-09-29T04:07:49;9.60;99.90
7516;DHT22;3799;47.184;8.538;2022-09-29T04:10:14;9.50;99.90
7516;DHT22;3799;47.184;8.538;2022-09-29T04:12:40;9.40;99.90
7516;DHT22;3799;47.184;8.538;2022-09-29T04:15:06;9.50;99.90
7516;DHT22;3799;47.184;8.538;2022-09-29T04:17:31;9.50;99.90
7516;DHT22;3799;47.184;8.538;2022-09-29T04:19:57;9.50;99.90
7516;DHT22;3799;47.184;8.538;2022-09-29T04:22:23;9.60;99.90
7516;DHT22;3799;47.184;8.538;2022-09-29T04:24:48;9.40;99.90
7516;DHT22;3799;47.184;8.538;2022-09-29T04:27:15;9.60;99.90
7516;DHT22;3799;47.184;8.538;2022-09-29T04:29:41;9.40;99.90
7516;DHT22;3799;47.184;8.538;2022-09-29T04:32:06;9.60;99.90
7516;DHT22;3799;47.184;8.538;2022-09-29T04:34:33;9.30;99.90
7516;DHT22;3799;47.184;8.538;2022-09-29T04:36:58;9.60;99.90
7516;DHT22;3799;47.184;8.538;2022-09-29T04:39:24;9.30;99.90
7516;DHT22;3799;47.184;8.538;2022-09-29T04:41:50;9.40;99.90
7516;DHT22;3799;47.184;8.538;2022-09-29T04:44:16;9.50;99.90
7516;DHT22;3799;47.184;8.538;2022-09-29T04:46:44;9.60;99.90
7516;DHT22;3799;47.184;8.538;2022-09-29T04:49:12;9.30;99.90
7516;DHT22;3799;47.184;8.538;2022-09-29T04:51:38;9.50;99.90
7516;DHT22;3799;47.184;8.538;2022-09-29T04:54:04;9.70;99.90
7516;DHT22;3799;47.184;8.538;2022-09-29T04:56:29;9.40;99.90
7516;DHT22;3799;47.184;8.538;2022-09-29T04:58:56;9.70;99.90
7516;DHT22;3799;47.184;8.538;2022-09-29T05:01:22;9.60;99.90
7516;DHT22;3799;47.184;8.538;2022-09-29T05:03:49;9.40;99.90
7516;DHT22;3799;47.184;8.538;2022-09-29T05:06:15;9.60;99.90
7516;DHT22;3799;47.184;8.538;2022-09-29T05:08:41;9.60;99.90
7516;DHT22;3799;47.184;8.538;2022-09-29T05:11:07;9.60;99.90
7516;DHT22;3799;47.184;8.538;2022-09-29T05:13:34;9.70;99.90
7516;DHT22;3799;47.184;8.538;2022-09-29T05:15:59;9.60;99.90
7516;DHT22;3799;47.184;8.538;2022-09-29T05:18:25;9.80;99.90
7516;DHT22;3799;47.184;8.538;2022-09-29T05:20:51;9.60;99.90
7516;DHT22;3799;47.184;8.538;2022-09-29T05:23:17;9.40;99.90
7516;DHT22;3799;47.184;8.538;2022-09-29T05:25:43;9.50;99.90
7516;DHT22;3799;47.184;8.538;2022-09-29T05:28:10;9.40;99.90
7516;DHT22;3799;47.184;8.538;2022-09-29T05:30:39;9.60;99.90
7516;DHT22;3799;47.184;8.538;2022-09-29T05:33:05;9.50;99.90
7516;DHT22;3799;47.184;8.538;2022-09-29T05:35:30;9.50;99.90
7516;DHT22;3799;47.184;8.538;2022-09-29T05:37:56;9.60;99.90
7516;DHT22;3799;47.184;8.538;2022-09-29T05:40:21;9.50;99.90
7516;DHT22;3799;47.184;8.538;2022-09-29T05:42:51;9.50;99.90
7516;DHT22;3799;47.184;8.538;2022-09-29T05:45:17;9.50;99.90
7516;DHT22;3799;47.184;8.538;2022-09-29T05:47:43;9.50;99.90
7516;DHT22;3799;47.184;8.538;2022-09-29T05:50:10;9.60;99.90
7516;DHT22;3799;47.184;8.538;2022-09-29T05:52:36;9.40;99.90
7516;DHT22;3799;47.184;8.538;2022-09-29T05:55:02;9.50;99.90
7516;DHT22;3799;47.184;8.538;2022-09-29T05:57:27;9.60;99.90
7516;DHT22;3799;47.184;8.538;2022-09-29T05:59:53;9.60;99.90
7516;DHT22;3799;47.184;8.538;2022-09-29T06:02:18;9.50;99.90
7516;DHT22;3799;47.184;8.538;2022-09-29T06:04:44;9.90;99.90
7516;DHT22;3799;47.184;8.538;2022-09-29T06:07:10;9.70;99.90
7516;DHT22;3799;47.184;8.538;2022-09-29T06:09:35;9.60;99.90
7516;DHT22;3799;47.184;8.538;2022-09-29T06:12:01;9.70;99.90
7516;DHT22;3799;47.184;8.538;2022-09-29T06:14:27;9.60;99.90
7516;DHT22;3799;47.184;8.538;2022-09-29T06:16:53;9.80;99.90
7516;DHT22;3799;47.184;8.538;2022-09-29T06:19:18;9.80;99.90
7516;DHT22;3799;47.184;8.538;2022-09-29T06:21:44;9.70;99.90
7516;DHT22;3799;47.184;8.538;2022-09-29T06:24:10;9.70;99.90
7516;DHT22;3799;47.184;8.538;2022-09-29T06:26:36;9.90;99.90
7516;DHT22;3799;47.184;8.538;2022-09-29T06:29:02;9.80;99.90
7516;DHT22;3799;47.184;8.538;2022-09-29T06:31:29;9.80;99.90
7516;DHT22;3799;47.184;8.538;2022-09-29T06:33:59;9.70;99.90
7516;DHT22;3799;47.184;8.538;2022-09-29T06:36:33;9.50;99.90
7516;DHT22;3799;47.184;8.538;2022-09-29T06:39:18;9.60;99.90
7516;DHT22;3799;47.184;8.538;2022-09-29T06:41:44;9.60;99.90
7516;DHT22;3799;47.184;8.538;2022-09-29T06:44:30;9.80;99.90
7516;DHT22;3799;47.184;8.538;2022-09-29T06:46:56;9.90;99.90
7516;DHT22;3799;47.184;8.538;2022-09-29T06:49:22;10.00;99.90
7516;DHT22;3799;47.184;8.538;2022-09-29T06:51:48;10.10;99.90
7516;DHT22;3799;47.184;8.538;2022-09-29T06:54:18;10.00;99.90
7516;DHT22;3799;47.184;8.538;2022-09-29T06:56:48;9.90;99.90
7516;DHT22;3799;47.184;8.538;2022-09-29T06:59:14;10.00;99.90
7516;DHT22;3799;47.184;8.538;2022-09-29T07:01:39;10.10;99.90
7516;DHT22;3799;47.184;8.538;2022-09-29T07:04:05;9.90;99.90
7516;DHT22;3799;47.184;8.538;2022-09-29T07:06:31;10.20;99.90
7516;DHT22;3799;47.184;8.538;2022-09-29T07:08:59;10.00;99.90
7516;DHT22;3799;47.184;8.538;2022-09-29T07:11:26;10.20;99.90
7516;DHT22;3799;47.184;8.538;2022-09-29T07:13:52;10.00;99.90
7516;DHT22;3799;47.184;8.538;2022-09-29T07:16:18;10.20;99.90
7516;DHT22;3799;47.184;8.538;2022-09-29T07:18:45;10.10;99.90
7516;DHT22;3799;47.184;8.538;2022-09-29T07:21:12;10.00;99.90
7516;DHT22;3799;47.184;8.538;2022-09-29T07:23:40;10.10;99.90
7516;DHT22;3799;47.184;8.538;2022-09-29T07:26:07;10.10;99.90
7516;DHT22;3799;47.184;8.538;2022-09-29T07:28:32;10.00;99.90
7516;DHT22;3799;47.184;8.538;2022-09-29T07:31:05;10.20;99.90
7516;DHT22;3799;47.184;8.538;2022-09-29T07:33:31;10.30;99.90
7516;DHT22;3799;47.184;8.538;2022-09-29T07:35:57;10.30;99.90
7516;DHT22;3799;47.184;8.538;2022-09-29T07:38:28;10.60;99.90
7516;DHT22;3799;47.184;8.538;2022-09-29T07:40:54;10.40;99.90
7516;DHT22;3799;47.184;8.538;2022-09-29T07:43:19;10.30;99.90
7516;DHT22;3799;47.184;8.538;2022-09-29T07:45:49;10.20;99.90
7516;DHT22;3799;47.184;8.538;2022-09-29T07:48:15;10.40;99.90
7516;DHT22;3799;47.184;8.538;2022-09-29T07:50:41;10.60;99.90
7516;DHT22;3799;47.184;8.538;2022-09-29T07:53:08;10.40;99.90
7516;DHT22;3799;47.184;8.538;2022-09-29T07:55:33;10.80;99.90
7516;DHT22;3799;47.184;8.538;2022-09-29T07:58:00;10.70;99.90
7516;DHT22;3799;47.184;8.538;2022-09-29T08:00:27;10.70;99.90
7516;DHT22;3799;47.184;8.538;2022-09-29T08:03:01;10.80;99.90
7516;DHT22;3799;47.184;8.538;2022-09-29T08:05:31;10.90;99.90
7516;DHT22;3799;47.184;8.538;2022-09-29T08:07:58;11.00;99.90
7516;DHT22;3799;47.184;8.538;2022-09-29T08:10:25;10.80;99.90
7516;DHT22;3799;47.184;8.538;2022-09-29T08:12:52;10.80;99.90
7516;DHT22;3799;47.184;8.538;2022-09-29T08:15:17;10.90;99.90
7516;DHT22;3799;47.184;8.538;2022-09-29T08:17:43;10.90;99.90
7516;DHT22;3799;47.184;8.538;2022-09-29T08:20:08;10.90;99.90
7516;DHT22;3799;47.184;8.538;2022-09-29T08:22:34;11.10;99.90
7516;DHT22;3799;47.184;8.538;2022-09-29T08:25:00;11.20;99.90
7516;DHT22;3799;47.184;8.538;2022-09-29T08:27:25;10.90;99.90
7516;DHT22;3799;47.184;8.538;2022-09-29T08:29:51;11.20;99.90
7516;DHT22;3799;47.184;8.538;2022-09-29T08:32:17;10.80;99.90
7516;DHT22;3799;47.184;8.538;2022-09-29T08:34:42;10.60;99.90
7516;DHT22;3799;47.184;8.538;2022-09-29T08:37:08;10.80;99.90
7516;DHT22;3799;47.184;8.538;2022-09-29T08:39:34;11.10;99.90
7516;DHT22;3799;47.184;8.538;2022-09-29T08:44:33;11.30;99.90
7516;DHT22;3799;47.184;8.538;2022-09-29T08:47:01;11.20;99.90
7516;DHT22;3799;47.184;8.538;2022-09-29T08:49:34;11.20;99.90
7516;DHT22;3799;47.184;8.538;2022-09-29T08:52:03;11.50;99.90
7516;DHT22;3799;47.184;8.538;2022-09-29T08:54:33;11.40;99.90
7516;DHT22;3799;47.184;8.538;2022-09-29T08:56:59;11.50;99.90
7516;DHT22;3799;47.184;8.538;2022-09-29T08:59:26;11.90;99.90
7516;DHT22;3799;47.184;8.538;2022-09-29T09:04:34;11.80;99.90
7516;DHT22;3799;47.184;8.538;2022-09-29T09:12:29;11.60;99.90
7516;DHT22;3799;47.184;8.538;2022-09-29T09:25:25;11.50;99.90
7516;DHT22;3799;47.184;8.538;2022-09-29T09:28:03;11.70;99.90
7516;DHT22;3799;47.184;8.538;2022-09-29T09:30:39;11.70;99.90
7516;DHT22;3799;47.184;8.538;2022-09-29T09:33:09;11.80;99.90
7516;DHT22;3799;47.184;8.538;2022-09-29T09:35:48;11.80;99.90
7516;DHT22;3799;47.184;8.538;2022-09-29T09:38:19;11.80;99.90
7516;DHT22;3799;47.184;8.538;2022-09-29T09:40:47;11.80;99.90
7516;DHT22;3799;47.184;8.538;2022-09-29T09:43:15;11.90;99.90
7516;DHT22;3799;47.184;8.538;2022-09-29T09:45:48;12.00;99.90
7516;DHT22;3799;47.184;8.538;2022-09-29T09:48:27;12.00;99.90
7516;DHT22;3799;47.184;8.538;2022-09-29T09:50:54;11.90;99.90
7516;DHT22;3799;47.184;8.538;2022-09-29T09:53:21;12.00;99.90
7516;DHT22;3799;47.184;8.538;2022-09-29T09:55:52;11.90;99.90
7516;DHT22;3799;47.184;8.538;2022-09-29T10:01:07;12.10;99.90
7516;DHT22;3799;47.184;8.538;2022-09-29T10:03:33;11.90;99.90
7516;DHT22;3799;47.184;8.538;2022-09-29T10:06:00;12.00;99.90
7516;DHT22;3799;47.184;8.538;2022-09-29T10:08:27;12.20;99.90
7516;DHT22;3799;47.184;8.538;2022-09-29T10:10:54;12.30;99.90
7516;DHT22;3799;47.184;8.538;2022-09-29T10:13:21;12.30;99.90
7516;DHT22;3799;47.184;8.538;2022-09-29T10:15:59;11.90;99.90
7516;DHT22;3799;47.184;8.538;2022-09-29T10:18:35;12.00;99.90
7516;DHT22;3799;47.184;8.538;2022-09-29T10:21:02;12.00;99.90
7516;DHT22;3799;47.184;8.538;2022-09-29T10:23:33;12.50;99.90
7516;DHT22;3799;47.184;8.538;2022-09-29T10:29:15;12.40;99.90
7516;DHT22;3799;47.184;8.538;2022-09-29T10:31:42;12.50;99.90
7516;DHT22;3799;47.184;8.538;2022-09-29T10:36:48;12.60;99.90
7516;DHT22;3799;47.184;8.538;2022-09-29T10:41:55;12.50;99.90
7516;DHT22;3799;47.184;8.538;2022-09-29T10:44:20;12.80;99.90
7516;DHT22;3799;47.184;8.538;2022-09-29T10:46:51;12.50;99.90
7516;DHT22;3799;47.184;8.538;2022-09-29T10:49:18;12.70;99.90
7516;DHT22;3799;47.184;8.538;2022-09-29T10:52:06;12.70;99.90
7516;DHT22;3799;47.184;8.538;2022-09-29T10:54:51;12.60;99.90
7516;DHT22;3799;47.184;8.538;2022-09-29T10:57:19;12.70;99.90
7516;DHT22;3799;47.184;8.538;2022-09-29T10:59:48;12.80;99.90
7516;DHT22;3799;47.184;8.538;2022-09-29T11:02:18;12.40;99.90
7516;DHT22;3799;47.184;8.538;2022-09-29T11:04:45;12.40;99.90
7516;DHT22;3799;47.184;8.538;2022-09-29T11:07:12;12.70;99.90
7516;DHT22;3799;47.184;8.538;2022-09-29T11:09:38;12.70;99.90
7516;DHT22;3799;47.184;8.538;2022-09-29T11:12:05;12.90;99.90
7516;DHT22;3799;47.184;8.538;2022-09-29T11:14:48;12.70;99.90
7516;DHT22;3799;47.184;8.538;2022-09-29T11:17:56;12.80;99.90
7516;DHT22;3799;47.184;8.538;2022-09-29T11:20:04;12.80;99.90
7516;DHT22;3799;47.184;8.538;2022-09-29T11:27:46;13.10;99.90
7516;DHT22;3799;47.184;8.538;2022-09-29T11:30:18;13.10;99.90
7516;DHT22;3799;47.184;8.538;2022-09-29T11:50:48;14.20;99.90
7516;DHT22;3799;47.184;8.538;2022-09-29T11:53:30;13.90;99.90
7516;DHT22;3799;47.184;8.538;2022-09-29T12:01:25;14.10;99.90
7516;DHT22;3799;47.184;8.538;2022-09-29T12:16:31;14.10;99.90
7516;DHT22;3799;47.184;8.538;2022-09-29T12:19:07;14.30;99.90
7516;DHT22;3799;47.184;8.538;2022-09-29T12:21:35;14.20;99.90
7516;DHT22;3799;47.184;8.538;2022-09-29T12:24:03;14.60;99.90
7516;DHT22;3799;47.184;8.538;2022-09-29T12:26:30;14.30;99.90
7516;DHT22;3799;47.184;8.538;2022-09-29T12:29:00;14.50;99.90
7516;DHT22;3799;47.184;8.538;2022-09-29T12:31:27;14.90;99.90
7516;DHT22;3799;47.184;8.538;2022-09-29T12:33:56;14.70;99.90
7516;DHT22;3799;47.184;8.538;2022-09-29T12:36:25;14.90;99.90
7516;DHT22;3799;47.184;8.538;2022-09-29T12:41:47;15.20;99.90
7516;DHT22;3799;47.184;8.538;2022-09-29T12:46:53;15.40;99.90
7516;DHT22;3799;47.184;8.538;2022-09-29T12:49:25;15.60;99.90
7516;DHT22;3799;47.184;8.538;2022-09-29T12:51:53;15.50;99.90
7516;DHT22;3799;47.184;8.538;2022-09-29T12:54:22;15.30;99.90
7516;DHT22;3799;47.184;8.538;2022-09-29T12:59:43;15.10;99.90
7516;DHT22;3799;47.184;8.538;2022-09-29T13:05:10;15.00;99.90
7516;DHT22;3799;47.184;8.538;2022-09-29T13:28:54;14.00;99.90
7516;DHT22;3799;47.184;8.538;2022-09-29T13:31:23;13.90;99.90
7516;DHT22;3799;47.184;8.538;2022-09-29T13:33:50;13.70;99.90
7516;DHT22;3799;47.184;8.538;2022-09-29T13:36:25;13.50;99.90
7516;DHT22;3799;47.184;8.538;2022-09-29T13:38:53;13.90;99.90
7516;DHT22;3799;47.184;8.538;2022-09-29T13:46:35;13.80;99.90
7516;DHT22;3799;47.184;8.538;2022-09-29T13:54:27;13.50;99.90
7516;DHT22;3799;47.184;8.538;2022-09-29T13:59:32;13.30;99.90
7516;DHT22;3799;47.184;8.538;2022-09-29T14:01:57;13.00;99.90
7516;DHT22;3799;47.184;8.538;2022-09-29T14:07:10;13.10;99.90
7516;DHT22;3799;47.184;8.538;2022-09-29T14:09:37;13.20;99.90
7516;DHT22;3799;47.184;8.538;2022-09-29T14:12:06;13.10;99.90
7516;DHT22;3799;47.184;8.538;2022-09-29T14:14:33;12.80;99.90
7516;DHT22;3799;47.184;8.538;2022-09-29T14:17:03;12.90;99.90
7516;DHT22;3799;47.184;8.538;2022-09-29T14:22:02;13.40;99.90
7516;DHT22;3799;47.184;8.538;2022-09-29T14:27:23;13.70;99.90
7516;DHT22;3799;47.184;8.538;2022-09-29T14:37:49;13.90;99.90
7516;DHT22;3799;47.184;8.538;2022-09-29T14:40:17;14.10;99.90
7516;DHT22;3799;47.184;8.538;2022-09-29T14:43:02;13.90;99.90
7516;DHT22;3799;47.184;8.538;2022-09-29T14:45:28;14.30;99.90
7516;DHT22;3799;47.184;8.538;2022-09-29T14:48:29;14.10;99.90
7516;DHT22;3799;47.184;8.538;2022-09-29T14:51:17;14.30;99.90
7516;DHT22;3799;47.184;8.538;2022-09-29T14:54:18;14.10;99.90
7516;DHT22;3799;47.184;8.538;2022-09-29T14:59:18;14.20;99.90
7516;DHT22;3799;47.184;8.538;2022-09-29T15:04:23;13.90;99.90
7516;DHT22;3799;47.184;8.538;2022-09-29T15:06:49;13.80;99.90
7516;DHT22;3799;47.184;8.538;2022-09-29T15:09:22;13.80;99.90
7516;DHT22;3799;47.184;8.538;2022-09-29T15:14:24;13.90;99.90
7516;DHT22;3799;47.184;8.538;2022-09-29T15:27:12;14.10;99.90
7516;DHT22;3799;47.184;8.538;2022-09-29T15:29:39;14.10;99.90
7516;DHT22;3799;47.184;8.538;2022-09-29T15:32:13;14.00;99.90
7516;DHT22;3799;47.184;8.538;2022-09-29T15:34:44;13.60;99.90
7516;DHT22;3799;47.184;8.538;2022-09-29T15:37:10;13.90;99.90
7516;DHT22;3799;47.184;8.538;2022-09-29T15:39:42;14.00;99.90
7516;DHT22;3799;47.184;8.538;2022-09-29T15:42:11;13.80;99.90
7516;DHT22;3799;47.184;8.538;2022-09-29T15:44:40;13.90;99.90
7516;DHT22;3799;47.184;8.538;2022-09-29T15:47:17;13.80;99.90
7516;DHT22;3799;47.184;8.538;2022-09-29T15:49:48;13.60;99.90
7516;DHT22;3799;47.184;8.538;2022-09-29T15:52:15;13.70;99.90
7516;DHT22;3799;47.184;8.538;2022-09-29T15:54:43;13.50;99.90
7516;DHT22;3799;47.184;8.538;2022-09-29T15:57:26;13.90;99.90
7516;DHT22;3799;47.184;8.538;2022-09-29T16:02:45;13.50;99.90
7516;DHT22;3799;47.184;8.538;2022-09-29T16:05:12;13.60;99.90
7516;DHT22;3799;47.184;8.538;2022-09-29T16:07:40;13.50;99.90
7516;DHT22;3799;47.184;8.538;2022-09-29T16:10:14;13.30;99.90
7516;DHT22;3799;47.184;8.538;2022-09-29T16:13:14;13.30;99.90
7516;DHT22;3799;47.184;8.538;2022-09-29T16:15:41;13.30;99.90
7516;DHT22;3799;47.184;8.538;2022-09-29T16:18:08;13.60;99.90
7516;DHT22;3799;47.184;8.538;2022-09-29T16:20:35;13.30;99.90
7516;DHT22;3799;47.184;8.538;2022-09-29T16:23:08;13.50;99.90
7516;DHT22;3799;47.184;8.538;2022-09-29T16:25:34;13.40;99.90
7516;DHT22;3799;47.184;8.538;2022-09-29T16:28:00;13.40;99.90
7516;DHT22;3799;47.184;8.538;2022-09-29T16:30:28;13.40;99.90
7516;DHT22;3799;47.184;8.538;2022-09-29T16:32:54;13.50;99.90
7516;DHT22;3799;47.184;8.538;2022-09-29T16:40:37;13.20;99.90
7516;DHT22;3799;47.184;8.538;2022-09-29T16:43:02;13.10;99.90
7516;DHT22;3799;47.184;8.538;2022-09-29T16:45:28;12.90;99.90
7516;DHT22;3799;47.184;8.538;2022-09-29T16:47:54;12.70;99.90
7516;DHT22;3799;47.184;8.538;2022-09-29T16:50:20;12.60;99.90
7516;DHT22;3799;47.184;8.538;2022-09-29T16:52:47;12.70;99.90
7516;DHT22;3799;47.184;8.538;2022-09-29T16:58:07;12.30;99.90
7516;DHT22;3799;47.184;8.538;2022-09-29T17:00:34;12.10;99.90
7516;DHT22;3799;47.184;8.538;2022-09-29T17:03:00;12.00;99.90
7516;DHT22;3799;47.184;8.538;2022-09-29T17:05:32;12.00;99.90
7516;DHT22;3799;47.184;8.538;2022-09-29T17:08:00;12.20;99.90
7516;DHT22;3799;47.184;8.538;2022-09-29T17:10:26;12.00;99.90
7516;DHT22;3799;47.184;8.538;2022-09-29T17:12:51;11.90;99.90
7516;DHT22;3799;47.184;8.538;2022-09-29T17:15:18;12.10;99.90
7516;DHT22;3799;47.184;8.538;2022-09-29T17:17:44;12.00;99.90
7516;DHT22;3799;47.184;8.538;2022-09-29T17:20:12;12.50;99.90
7516;DHT22;3799;47.184;8.538;2022-09-29T17:22:37;12.40;99.90
7516;DHT22;3799;47.184;8.538;2022-09-29T17:25:04;12.70;99.90
7516;DHT22;3799;47.184;8.538;2022-09-29T17:27:29;12.20;99.90
7516;DHT22;3799;47.184;8.538;2022-09-29T17:30:16;12.50;99.90
7516;DHT22;3799;47.184;8.538;2022-09-29T17:32:43;12.60;99.90
7516;DHT22;3799;47.184;8.538;2022-09-29T17:35:14;12.70;99.90
7516;DHT22;3799;47.184;8.538;2022-09-29T17:37:41;12.60;99.90
7516;DHT22;3799;47.184;8.538;2022-09-29T17:42:57;12.30;99.90
7516;DHT22;3799;47.184;8.538;2022-09-29T17:45:26;12.40;99.90
7516;DHT22;3799;47.184;8.538;2022-09-29T17:47:52;12.40;99.90
7516;DHT22;3799;47.184;8.538;2022-09-29T17:50:26;12.20;99.90
7516;DHT22;3799;47.184;8.538;2022-09-29T17:52:53;12.40;99.90
7516;DHT22;3799;47.184;8.538;2022-09-29T17:55:19;12.40;99.90
7516;DHT22;3799;47.184;8.538;2022-09-29T17:57:47;12.30;99.90
7516;DHT22;3799;47.184;8.538;2022-09-29T18:02:49;12.40;99.90
7516;DHT22;3799;47.184;8.538;2022-09-29T18:05:16;12.20;99.90
7516;DHT22;3799;47.184;8.538;2022-09-29T18:07:47;12.60;99.90
7516;DHT22;3799;47.184;8.538;2022-09-29T18:10:18;12.30;99.90
7516;DHT22;3799;47.184;8.538;2022-09-29T18:12:44;12.50;99.90
7516;DHT22;3799;47.184;8.538;2022-09-29T18:15:09;12.70;99.90
7516;DHT22;3799;47.184;8.538;2022-09-29T18:17:35;12.60;99.90
7516;DHT22;3799;47.184;8.538;2022-09-29T18:20:07;12.50;99.90
7516;DHT22;3799;47.184;8.538;2022-09-29T18:22:33;12.50;99.90
7516;DHT22;3799;47.184;8.538;2022-09-29T18:25:00;12.60;99.90
7516;DHT22;3799;47.184;8.538;2022-09-29T18:27:26;12.40;99.90
7516;DHT22;3799;47.184;8.538;2022-09-29T18:29:51;12.60;99.90
7516;DHT22;3799;47.184;8.538;2022-09-29T18:32:17;12.70;99.90
7516;DHT22;3799;47.184;8.538;2022-09-29T18:34:43;12.70;99.90
7516;DHT22;3799;47.184;8.538;2022-09-29T18:37:09;12.70;99.90
7516;DHT22;3799;47.184;8.538;2022-09-29T18:39:35;12.40;99.90
7516;DHT22;3799;47.184;8.538;2022-09-29T18:42:00;12.30;99.90
7516;DHT22;3799;47.184;8.538;2022-09-29T18:44:26;12.30;99.90
7516;DHT22;3799;47.184;8.538;2022-09-29T18:46:54;12.50;99.90
7516;DHT22;3799;47.184;8.538;2022-09-29T18:49:19;12.50;99.90
7516;DHT22;3799;47.184;8.538;2022-09-29T18:51:45;12.40;99.90
7516;DHT22;3799;47.184;8.538;2022-09-29T18:54:11;12.60;99.90
7516;DHT22;3799;47.184;8.538;2022-09-29T18:56:37;12.40;99.90
7516;DHT22;3799;47.184;8.538;2022-09-29T18:59:03;12.30;99.90
7516;DHT22;3799;47.184;8.538;2022-09-29T19:01:31;12.50;99.90
7516;DHT22;3799;47.184;8.538;2022-09-29T19:03:56;12.50;99.90
7516;DHT22;3799;47.184;8.538;2022-09-29T19:06:22;12.50;99.90
7516;DHT22;3799;47.184;8.538;2022-09-29T19:08:48;12.60;99.90
7516;DHT22;3799;47.184;8.538;2022-09-29T19:11:23;12.60;99.90
7516;DHT22;3799;47.184;8.538;2022-09-29T19:13:50;12.50;99.90
7516;DHT22;3799;47.184;8.538;2022-09-29T19:16:18;12.60;99.90
7516;DHT22;3799;47.184;8.538;2022-09-29T19:18:44;12.60;99.90
7516;DHT22;3799;47.184;8.538;2022-09-29T19:21:11;12.90;99.90
7516;DHT22;3799;47.184;8.538;2022-09-29T19:23:37;12.70;99.90
7516;DHT22;3799;47.184;8.538;2022-09-29T19:26:07;12.80;99.90
7516;DHT22;3799;47.184;8.538;2022-09-29T19:28:33;12.70;99.90
7516;DHT22;3799;47.184;8.538;2022-09-29T19:31:02;12.70;99.90
7516;DHT22;3799;47.184;8.538;2022-09-29T19:33:28;12.90;99.90
7516;DHT22;3799;47.184;8.538;2022-09-29T19:35:54;12.70;99.90
7516;DHT22;3799;47.184;8.538;2022-09-29T19:38:20;12.90;99.90
7516;DHT22;3799;47.184;8.538;2022-09-29T19:40:46;12.60;99.90
7516;DHT22;3799;47.184;8.538;2022-09-29T19:43:13;12.80;99.90